sensor_id;sensor_type;location;lat;lon;timestamp;P1;P2;P0
47705;PMS5003;33471;52.104;1.318;2022-07-06T00:01:58;3;3;
47705;PMS5003;33471;52.104;1.318;2022-07-06T00:04:25;5;3;
47705;PMS5003;33471;52.104;1.318;2022-07-06T00:06:52;4;4;
47705;PMS5003;33471;52.104;1.318;2022-07-06T00:09:19;3;3;
47705;PMS5003;33471;52.104;1.318;2022-07-06T00:11:46;6;6;
47705;PMS5003;33471;52.104;1.318;2022-07-06T00:14:14;6;6;
47705;PMS5003;33471;52.104;1.318;2022-07-06T00:16:41;4;4;
47705;PMS5003;33471;52.104;1.318;2022-07-06T00:19:08;5;5;
47705;PMS5003;33471;52.104;1.318;2022-07-06T00:21:35;5;5;
47705;PMS5003;33471;52.104;1.318;2022-07-06T00:24:02;4;4;
47705;PMS5003;33471;52.104;1.318;2022-07-06T00:26:30;5;5;
47705;PMS5003;33471;52.104;1.318;2022-07-06T00:28:57;3;3;
47705;PMS5003;33471;52.104;1.318;2022-07-06T00:31:24;4;4;
47705;PMS5003;33471;52.104;1.318;2022-07-06T00:33:52;5;5;
47705;PMS5003;33471;52.104;1.318;2022-07-06T00:36:19;3;3;
47705;PMS5003;33471;52.104;1.318;2022-07-06T00:38:46;6;6;
47705;PMS5003;33471;52.104;1.318;2022-07-06T00:41:14;3;3;
47705;PMS5003;33471;52.104;1.318;2022-07-06T00:43:49;3;3;
47705;PMS5003;33471;52.104;1.318;2022-07-06T00:46:17;5;5;
47705;PMS5003;33471;52.104;1.318;2022-07-06T00:48:45;6;5;
47705;PMS5003;33471;52.104;1.318;2022-07-06T00:51:12;3;3;
47705;PMS5003;33471;52.104;1.318;2022-07-06T00:53:41;8;8;
47705;PMS5003;33471;52.104;1.318;2022-07-06T00:56:09;6;6;
47705;PMS5003;33471;52.104;1.318;2022-07-06T00:58:37;3;3;
47705;PMS5003;33471;52.104;1.318;2022-07-06T01:01:05;5;4;
47705;PMS5003;33471;52.104;1.318;2022-07-06T01:03:32;4;4;
47705;PMS5003;33471;52.104;1.318;2022-07-06T01:05:59;3;3;
47705;PMS5003;33471;52.104;1.318;2022-07-06T01:08:27;3;3;
47705;PMS5003;33471;52.104;1.318;2022-07-06T01:10:55;4;4;
47705;PMS5003;33471;52.104;1.318;2022-07-06T01:13:22;4;2;
47705;PMS5003;33471;52.104;1.318;2022-07-06T01:15:50;4;4;
47705;PMS5003;33471;52.104;1.318;2022-07-06T01:18:18;5;5;
47705;PMS5003;33471;52.104;1.318;2022-07-06T01:20:46;4;4;
47705;PMS5003;33471;52.104;1.318;2022-07-06T01:23:13;4;4;
47705;PMS5003;33471;52.104;1.318;2022-07-06T01:25:40;5;5;
47705;PMS5003;33471;52.104;1.318;2022-07-06T01:28:07;4;4;
47705;PMS5003;33471;52.104;1.318;2022-07-06T01:30:34;5;5;
47705;PMS5003;33471;52.104;1.318;2022-07-06T01:33:01;3;3;
47705;PMS5003;33471;52.104;1.318;2022-07-06T01:35:28;6;6;
47705;PMS5003;33471;52.104;1.318;2022-07-06T01:37:58;5;5;
47705;PMS5003;33471;52.104;1.318;2022-07-06T01:40:25;3;3;
47705;PMS5003;33471;52.104;1.318;2022-07-06T01:42:53;8;8;
47705;PMS5003;33471;52.104;1.318;2022-07-06T01:45:20;6;4;
47705;PMS5003;33471;52.104;1.318;2022-07-06T01:47:47;5;4;
47705;PMS5003;33471;52.104;1.318;2022-07-06T01:50:14;3;3;
47705;PMS5003;33471;52.104;1.318;2022-07-06T01:52:41;3;3;
47705;PMS5003;33471;52.104;1.318;2022-07-06T01:55:08;4;4;
47705;PMS5003;33471;52.104;1.318;2022-07-06T01:57:36;8;6;
47705;PMS5003;33471;52.104;1.318;2022-07-06T02:00:04;4;4;
47705;PMS5003;33471;52.104;1.318;2022-07-06T02:02:33;5;5;
47705;PMS5003;33471;52.104;1.318;2022-07-06T02:05:00;6;6;
47705;PMS5003;33471;52.104;1.318;2022-07-06T02:07:27;3;3;
47705;PMS5003;33471;52.104;1.318;2022-07-06T02:09:54;5;4;
47705;PMS5003;33471;52.104;1.318;2022-07-06T02:12:22;5;5;
47705;PMS5003;33471;52.104;1.318;2022-07-06T02:14:50;5;5;
47705;PMS5003;33471;52.104;1.318;2022-07-06T02:17:17;4;4;
47705;PMS5003;33471;52.104;1.318;2022-07-06T02:19:44;6;6;
47705;PMS5003;33471;52.104;1.318;2022-07-06T02:22:11;8;6;
47705;PMS5003;33471;52.104;1.318;2022-07-06T02:24:38;4;4;
47705;PMS5003;33471;52.104;1.318;2022-07-06T02:27:06;5;5;
47705;PMS5003;33471;52.104;1.318;2022-07-06T02:29:33;7;6;
47705;PMS5003;33471;52.104;1.318;2022-07-06T02:32:00;5;5;
47705;PMS5003;33471;52.104;1.318;2022-07-06T02:34:27;4;4;
47705;PMS5003;33471;52.104;1.318;2022-07-06T02:36:54;7;6;
47705;PMS5003;33471;52.104;1.318;2022-07-06T02:39:21;7;7;
47705;PMS5003;33471;52.104;1.318;2022-07-06T02:41:49;5;5;
47705;PMS5003;33471;52.104;1.318;2022-07-06T02:44:17;4;4;
47705;PMS5003;33471;52.104;1.318;2022-07-06T02:46:44;7;7;
47705;PMS5003;33471;52.104;1.318;2022-07-06T02:49:11;9;6;
47705;PMS5003;33471;52.104;1.318;2022-07-06T02:51:38;6;6;
47705;PMS5003;33471;52.104;1.318;2022-07-06T02:54:05;6;6;
47705;PMS5003;33471;52.104;1.318;2022-07-06T02:56:32;5;5;
47705;PMS5003;33471;52.104;1.318;2022-07-06T02:58:59;6;6;
47705;PMS5003;33471;52.104;1.318;2022-07-06T03:01:26;4;4;
47705;PMS5003;33471;52.104;1.318;2022-07-06T03:03:53;4;4;
47705;PMS5003;33471;52.104;1.318;2022-07-06T03:06:20;5;5;
47705;PMS5003;33471;52.104;1.318;2022-07-06T03:08:47;9;8;
47705;PMS5003;33471;52.104;1.318;2022-07-06T03:11:14;6;5;
47705;PMS5003;33471;52.104;1.318;2022-07-06T03:13:42;7;7;
47705;PMS5003;33471;52.104;1.318;2022-07-06T03:16:09;11;11;
47705;PMS5003;33471;52.104;1.318;2022-07-06T03:18:36;8;6;
47705;PMS5003;33471;52.104;1.318;2022-07-06T03:21:03;8;8;
47705;PMS5003;33471;52.104;1.318;2022-07-06T03:23:30;7;7;
47705;PMS5003;33471;52.104;1.318;2022-07-06T03:25:57;8;8;
47705;PMS5003;33471;52.104;1.318;2022-07-06T03:28:25;7;5;
47705;PMS5003;33471;52.104;1.318;2022-07-06T03:30:52;5;5;
47705;PMS5003;33471;52.104;1.318;2022-07-06T03:33:19;12;10;
47705;PMS5003;33471;52.104;1.318;2022-07-06T03:35:46;7;7;
47705;PMS5003;33471;52.104;1.318;2022-07-06T03:38:13;9;8;
47705;PMS5003;33471;52.104;1.318;2022-07-06T03:40:40;6;6;
47705;PMS5003;33471;52.104;1.318;2022-07-06T03:43:08;7;7;
47705;PMS5003;33471;52.104;1.318;2022-07-06T03:45:35;11;11;
47705;PMS5003;33471;52.104;1.318;2022-07-06T03:48:02;5;5;
47705;PMS5003;33471;52.104;1.318;2022-07-06T03:50:30;7;7;
47705;PMS5003;33471;52.104;1.318;2022-07-06T03:52:58;11;9;
47705;PMS5003;33471;52.104;1.318;2022-07-06T03:55:25;11;11;
47705;PMS5003;33471;52.104;1.318;2022-07-06T03:57:53;11;10;
47705;PMS5003;33471;52.104;1.318;2022-07-06T04:00:20;8;7;
47705;PMS5003;33471;52.104;1.318;2022-07-06T04:02:47;8;8;
47705;PMS5003;33471;52.104;1.318;2022-07-06T04:05:15;9;8;
47705;PMS5003;33471;52.104;1.318;2022-07-06T04:07:42;10;9;
47705;PMS5003;33471;52.104;1.318;2022-07-06T04:10:09;16;16;
47705;PMS5003;33471;52.104;1.318;2022-07-06T04:12:39;15;15;
47705;PMS5003;33471;52.104;1.318;2022-07-06T04:15:07;12;12;
47705;PMS5003;33471;52.104;1.318;2022-07-06T04:17:35;11;11;
47705;PMS5003;33471;52.104;1.318;2022-07-06T04:20:03;16;14;
47705;PMS5003;33471;52.104;1.318;2022-07-06T04:22:32;17;14;
47705;PMS5003;33471;52.104;1.318;2022-07-06T04:24:59;17;17;
47705;PMS5003;33471;52.104;1.318;2022-07-06T04:27:26;12;11;
47705;PMS5003;33471;52.104;1.318;2022-07-06T04:29:53;16;16;
47705;PMS5003;33471;52.104;1.318;2022-07-06T04:32:21;13;12;
47705;PMS5003;33471;52.104;1.318;2022-07-06T04:34:48;13;13;
47705;PMS5003;33471;52.104;1.318;2022-07-06T04:37:15;11;11;
47705;PMS5003;33471;52.104;1.318;2022-07-06T04:39:42;11;11;
47705;PMS5003;33471;52.104;1.318;2022-07-06T04:42:09;15;15;
47705;PMS5003;33471;52.104;1.318;2022-07-06T04:44:37;13;13;
47705;PMS5003;33471;52.104;1.318;2022-07-06T04:47:05;12;12;
47705;PMS5003;33471;52.104;1.318;2022-07-06T04:49:32;13;13;
47705;PMS5003;33471;52.104;1.318;2022-07-06T04:51:59;13;13;
47705;PMS5003;33471;52.104;1.318;2022-07-06T04:54:27;10;7;
47705;PMS5003;33471;52.104;1.318;2022-07-06T04:56:54;11;9;
47705;PMS5003;33471;52.104;1.318;2022-07-06T04:59:21;8;8;
47705;PMS5003;33471;52.104;1.318;2022-07-06T05:01:49;10;9;
47705;PMS5003;33471;52.104;1.318;2022-07-06T05:04:17;8;8;
47705;PMS5003;33471;52.104;1.318;2022-07-06T05:06:44;11;8;
47705;PMS5003;33471;52.104;1.318;2022-07-06T05:09:13;12;12;
47705;PMS5003;33471;52.104;1.318;2022-07-06T05:11:40;7;6;
47705;PMS5003;33471;52.104;1.318;2022-07-06T05:14:08;9;8;
47705;PMS5003;33471;52.104;1.318;2022-07-06T05:16:36;8;8;
47705;PMS5003;33471;52.104;1.318;2022-07-06T05:19:03;9;8;
47705;PMS5003;33471;52.104;1.318;2022-07-06T05:21:30;9;8;
47705;PMS5003;33471;52.104;1.318;2022-07-06T05:23:57;6;5;
47705;PMS5003;33471;52.104;1.318;2022-07-06T05:26:24;13;13;
47705;PMS5003;33471;52.104;1.318;2022-07-06T05:28:51;7;7;
47705;PMS5003;33471;52.104;1.318;2022-07-06T05:31:19;8;8;
47705;PMS5003;33471;52.104;1.318;2022-07-06T05:33:46;10;8;
47705;PMS5003;33471;52.104;1.318;2022-07-06T05:36:13;8;7;
47705;PMS5003;33471;52.104;1.318;2022-07-06T05:38:40;5;5;
47705;PMS5003;33471;52.104;1.318;2022-07-06T05:41:07;6;6;
47705;PMS5003;33471;52.104;1.318;2022-07-06T05:43:35;8;8;
47705;PMS5003;33471;52.104;1.318;2022-07-06T05:46:02;5;5;
47705;PMS5003;33471;52.104;1.318;2022-07-06T05:48:29;13;10;
47705;PMS5003;33471;52.104;1.318;2022-07-06T05:50:57;8;8;
47705;PMS5003;33471;52.104;1.318;2022-07-06T05:53:24;7;7;
47705;PMS5003;33471;52.104;1.318;2022-07-06T05:55:51;9;9;
47705;PMS5003;33471;52.104;1.318;2022-07-06T05:58:19;7;6;
47705;PMS5003;33471;52.104;1.318;2022-07-06T06:00:46;6;6;
47705;PMS5003;33471;52.104;1.318;2022-07-06T06:03:13;8;8;
47705;PMS5003;33471;52.104;1.318;2022-07-06T06:05:41;6;6;
47705;PMS5003;33471;52.104;1.318;2022-07-06T06:08:08;7;7;
47705;PMS5003;33471;52.104;1.318;2022-07-06T06:10:36;10;10;
47705;PMS5003;33471;52.104;1.318;2022-07-06T06:13:03;9;9;
47705;PMS5003;33471;52.104;1.318;2022-07-06T06:15:31;6;6;
47705;PMS5003;33471;52.104;1.318;2022-07-06T06:17:58;7;7;
47705;PMS5003;33471;52.104;1.318;2022-07-06T06:20:25;7;7;
47705;PMS5003;33471;52.104;1.318;2022-07-06T06:22:54;8;8;
47705;PMS5003;33471;52.104;1.318;2022-07-06T06:25:27;5;5;
47705;PMS5003;33471;52.104;1.318;2022-07-06T06:27:56;6;6;
47705;PMS5003;33471;52.104;1.318;2022-07-06T06:30:24;8;8;
47705;PMS5003;33471;52.104;1.318;2022-07-06T06:33:03;8;8;
47705;PMS5003;33471;52.104;1.318;2022-07-06T06:35:32;7;7;
47705;PMS5003;33471;52.104;1.318;2022-07-06T06:38:00;9;8;
47705;PMS5003;33471;52.104;1.318;2022-07-06T06:40:27;9;9;
47705;PMS5003;33471;52.104;1.318;2022-07-06T06:42:54;7;7;
47705;PMS5003;33471;52.104;1.318;2022-07-06T06:45:22;7;4;
47705;PMS5003;33471;52.104;1.318;2022-07-06T06:47:49;3;3;
47705;PMS5003;33471;52.104;1.318;2022-07-06T06:50:16;3;3;
47705;PMS5003;33471;52.104;1.318;2022-07-06T06:52:43;7;5;
47705;PMS5003;33471;52.104;1.318;2022-07-06T06:55:10;5;5;
47705;PMS5003;33471;52.104;1.318;2022-07-06T06:57:38;4;4;
47705;PMS5003;33471;52.104;1.318;2022-07-06T07:00:06;7;6;
47705;PMS5003;33471;52.104;1.318;2022-07-06T07:02:34;6;5;
47705;PMS5003;33471;52.104;1.318;2022-07-06T07:05:01;4;4;
47705;PMS5003;33471;52.104;1.318;2022-07-06T07:07:29;4;4;
47705;PMS5003;33471;52.104;1.318;2022-07-06T07:09:56;4;3;
47705;PMS5003;33471;52.104;1.318;2022-07-06T07:12:24;4;4;
47705;PMS5003;33471;52.104;1.318;2022-07-06T07:14:51;7;6;
47705;PMS5003;33471;52.104;1.318;2022-07-06T07:17:19;3;2;
47705;PMS5003;33471;52.104;1.318;2022-07-06T07:19:46;5;4;
47705;PMS5003;33471;52.104;1.318;2022-07-06T07:22:13;4;4;
47705;PMS5003;33471;52.104;1.318;2022-07-06T07:24:40;4;4;
47705;PMS5003;33471;52.104;1.318;2022-07-06T07:27:07;3;3;
47705;PMS5003;33471;52.104;1.318;2022-07-06T07:29:35;4;4;
47705;PMS5003;33471;52.104;1.318;2022-07-06T07:32:03;4;4;
47705;PMS5003;33471;52.104;1.318;2022-07-06T07:34:30;5;5;
47705;PMS5003;33471;52.104;1.318;2022-07-06T07:36:58;3;3;
47705;PMS5003;33471;52.104;1.318;2022-07-06T07:39:25;6;5;
47705;PMS5003;33471;52.104;1.318;2022-07-06T07:41:52;8;8;
47705;PMS5003;33471;52.104;1.318;2022-07-06T07:44:19;3;3;
47705;PMS5003;33471;52.104;1.318;2022-07-06T07:46:46;2;2;
47705;PMS5003;33471;52.104;1.318;2022-07-06T07:49:13;3;3;
47705;PMS5003;33471;52.104;1.318;2022-07-06T07:51:40;4;4;
47705;PMS5003;33471;52.104;1.318;2022-07-06T07:54:07;5;5;
47705;PMS5003;33471;52.104;1.318;2022-07-06T07:56:34;3;3;
47705;PMS5003;33471;52.104;1.318;2022-07-06T07:59:01;3;3;
47705;PMS5003;33471;52.104;1.318;2022-07-06T08:01:29;4;4;
47705;PMS5003;33471;52.104;1.318;2022-07-06T08:03:56;5;5;
47705;PMS5003;33471;52.104;1.318;2022-07-06T08:06:23;4;4;
47705;PMS5003;33471;52.104;1.318;2022-07-06T08:08:51;6;5;
47705;PMS5003;33471;52.104;1.318;2022-07-06T08:11:19;5;5;
47705;PMS5003;33471;52.104;1.318;2022-07-06T08:13:46;7;5;
47705;PMS5003;33471;52.104;1.318;2022-07-06T08:16:13;5;3;
47705;PMS5003;33471;52.104;1.318;2022-07-06T08:18:41;5;5;
47705;PMS5003;33471;52.104;1.318;2022-07-06T08:21:08;6;4;
47705;PMS5003;33471;52.104;1.318;2022-07-06T08:23:35;3;3;
47705;PMS5003;33471;52.104;1.318;2022-07-06T08:26:02;4;3;
47705;PMS5003;33471;52.104;1.318;2022-07-06T08:28:30;4;3;
47705;PMS5003;33471;52.104;1.318;2022-07-06T08:30:57;3;3;
47705;PMS5003;33471;52.104;1.318;2022-07-06T08:33:24;4;4;
47705;PMS5003;33471;52.104;1.318;2022-07-06T08:35:51;4;4;
47705;PMS5003;33471;52.104;1.318;2022-07-06T08:38:19;4;4;
47705;PMS5003;33471;52.104;1.318;2022-07-06T08:40:47;5;5;
47705;PMS5003;33471;52.104;1.318;2022-07-06T08:43:15;1;1;
47705;PMS5003;33471;52.104;1.318;2022-07-06T08:45:43;1;0;
47705;PMS5003;33471;52.104;1.318;2022-07-06T08:48:12;2;2;
47705;PMS5003;33471;52.104;1.318;2022-07-06T08:50:39;3;3;
47705;PMS5003;33471;52.104;1.318;2022-07-06T08:53:07;2;2;
47705;PMS5003;33471;52.104;1.318;2022-07-06T08:55:34;1;1;
47705;PMS5003;33471;52.104;1.318;2022-07-06T08:58:02;3;3;
47705;PMS5003;33471;52.104;1.318;2022-07-06T09:00:29;2;2;
47705;PMS5003;33471;52.104;1.318;2022-07-06T09:02:58;1;1;
47705;PMS5003;33471;52.104;1.318;2022-07-06T09:05:26;2;2;
47705;PMS5003;33471;52.104;1.318;2022-07-06T09:07:55;3;3;
47705;PMS5003;33471;52.104;1.318;2022-07-06T09:10:23;3;3;
47705;PMS5003;33471;52.104;1.318;2022-07-06T09:12:50;1;1;
47705;PMS5003;33471;52.104;1.318;2022-07-06T09:15:17;1;1;
47705;PMS5003;33471;52.104;1.318;2022-07-06T09:17:44;2;2;
47705;PMS5003;33471;52.104;1.318;2022-07-06T09:20:12;2;2;
47705;PMS5003;33471;52.104;1.318;2022-07-06T09:22:41;1;1;
47705;PMS5003;33471;52.104;1.318;2022-07-06T09:25:09;4;4;
47705;PMS5003;33471;52.104;1.318;2022-07-06T09:27:38;4;3;
47705;PMS5003;33471;52.104;1.318;2022-07-06T09:30:07;4;4;
47705;PMS5003;33471;52.104;1.318;2022-07-06T09:32:38;4;3;
47705;PMS5003;33471;52.104;1.318;2022-07-06T09:35:06;4;4;
47705;PMS5003;33471;52.104;1.318;2022-07-06T09:37:34;4;4;
47705;PMS5003;33471;52.104;1.318;2022-07-06T09:40:03;3;3;
47705;PMS5003;33471;52.104;1.318;2022-07-06T09:42:42;7;5;
47705;PMS5003;33471;52.104;1.318;2022-07-06T09:45:10;3;3;
47705;PMS5003;33471;52.104;1.318;2022-07-06T09:47:37;4;4;
47705;PMS5003;33471;52.104;1.318;2022-07-06T09:50:05;6;4;
47705;PMS5003;33471;52.104;1.318;2022-07-06T09:52:33;2;2;
47705;PMS5003;33471;52.104;1.318;2022-07-06T09:55:03;3;3;
47705;PMS5003;33471;52.104;1.318;2022-07-06T09:57:51;3;3;
47705;PMS5003;33471;52.104;1.318;2022-07-06T10:00:20;8;8;
47705;PMS5003;33471;52.104;1.318;2022-07-06T10:02:47;6;5;
47705;PMS5003;33471;52.104;1.318;2022-07-06T10:05:17;5;5;
47705;PMS5003;33471;52.104;1.318;2022-07-06T10:07:45;6;4;
47705;PMS5003;33471;52.104;1.318;2022-07-06T10:10:16;4;4;
47705;PMS5003;33471;52.104;1.318;2022-07-06T10:12:44;2;2;
47705;PMS5003;33471;52.104;1.318;2022-07-06T10:15:12;4;4;
47705;PMS5003;33471;52.104;1.318;2022-07-06T10:17:40;5;5;
47705;PMS5003;33471;52.104;1.318;2022-07-06T10:20:09;4;4;
47705;PMS5003;33471;52.104;1.318;2022-07-06T10:22:38;8;6;
47705;PMS5003;33471;52.104;1.318;2022-07-06T10:25:07;6;6;
47705;PMS5003;33471;52.104;1.318;2022-07-06T10:27:34;6;6;
47705;PMS5003;33471;52.104;1.318;2022-07-06T10:30:02;7;6;
47705;PMS5003;33471;52.104;1.318;2022-07-06T10:32:31;6;6;
47705;PMS5003;33471;52.104;1.318;2022-07-06T10:34:58;5;5;
47705;PMS5003;33471;52.104;1.318;2022-07-06T10:37:26;7;7;
47705;PMS5003;33471;52.104;1.318;2022-07-06T10:39:54;7;7;
47705;PMS5003;33471;52.104;1.318;2022-07-06T10:42:56;10;10;
47705;PMS5003;33471;52.104;1.318;2022-07-06T10:45:56;6;6;
47705;PMS5003;33471;52.104;1.318;2022-07-06T10:48:24;6;6;
47705;PMS5003;33471;52.104;1.318;2022-07-06T10:51:01;5;4;
47705;PMS5003;33471;52.104;1.318;2022-07-06T10:53:28;4;4;
47705;PMS5003;33471;52.104;1.318;2022-07-06T10:55:58;8;6;
47705;PMS5003;33471;52.104;1.318;2022-07-06T10:58:46;5;5;
47705;PMS5003;33471;52.104;1.318;2022-07-06T11:01:15;7;7;
47705;PMS5003;33471;52.104;1.318;2022-07-06T11:03:43;7;6;
47705;PMS5003;33471;52.104;1.318;2022-07-06T11:06:12;7;6;
47705;PMS5003;33471;52.104;1.318;2022-07-06T11:08:57;9;9;
47705;PMS5003;33471;52.104;1.318;2022-07-06T11:11:25;8;8;
47705;PMS5003;33471;52.104;1.318;2022-07-06T11:14:05;8;8;
47705;PMS5003;33471;52.104;1.318;2022-07-06T11:16:36;6;6;
47705;PMS5003;33471;52.104;1.318;2022-07-06T11:19:06;6;6;
47705;PMS5003;33471;52.104;1.318;2022-07-06T11:21:37;6;6;
47705;PMS5003;33471;52.104;1.318;2022-07-06T11:24:07;4;4;
47705;PMS5003;33471;52.104;1.318;2022-07-06T11:26:36;5;4;
47705;PMS5003;33471;52.104;1.318;2022-07-06T11:29:04;11;11;
47705;PMS5003;33471;52.104;1.318;2022-07-06T11:31:33;4;4;
47705;PMS5003;33471;52.104;1.318;2022-07-06T11:34:02;9;9;
47705;PMS5003;33471;52.104;1.318;2022-07-06T11:36:29;5;5;
47705;PMS5003;33471;52.104;1.318;2022-07-06T11:38:57;10;10;
47705;PMS5003;33471;52.104;1.318;2022-07-06T11:41:25;6;6;
47705;PMS5003;33471;52.104;1.318;2022-07-06T11:43:52;6;5;
47705;PMS5003;33471;52.104;1.318;2022-07-06T11:46:22;11;11;
47705;PMS5003;33471;52.104;1.318;2022-07-06T11:48:52;6;6;
47705;PMS5003;33471;52.104;1.318;2022-07-06T11:51:21;6;6;
47705;PMS5003;33471;52.104;1.318;2022-07-06T11:53:49;5;5;
47705;PMS5003;33471;52.104;1.318;2022-07-06T11:56:18;7;6;
47705;PMS5003;33471;52.104;1.318;2022-07-06T11:58:46;9;6;
47705;PMS5003;33471;52.104;1.318;2022-07-06T12:01:22;9;9;
47705;PMS5003;33471;52.104;1.318;2022-07-06T12:03:51;7;7;
47705;PMS5003;33471;52.104;1.318;2022-07-06T12:06:18;7;6;
47705;PMS5003;33471;52.104;1.318;2022-07-06T12:08:48;8;8;
47705;PMS5003;33471;52.104;1.318;2022-07-06T12:11:18;6;6;
47705;PMS5003;33471;52.104;1.318;2022-07-06T12:13:46;7;7;
47705;PMS5003;33471;52.104;1.318;2022-07-06T12:16:15;9;8;
47705;PMS5003;33471;52.104;1.318;2022-07-06T12:18:43;6;6;
47705;PMS5003;33471;52.104;1.318;2022-07-06T12:21:12;8;6;
47705;PMS5003;33471;52.104;1.318;2022-07-06T12:23:41;9;8;
47705;PMS5003;33471;52.104;1.318;2022-07-06T12:26:10;6;5;
47705;PMS5003;33471;52.104;1.318;2022-07-06T12:28:39;6;6;
47705;PMS5003;33471;52.104;1.318;2022-07-06T12:31:08;6;6;
47705;PMS5003;33471;52.104;1.318;2022-07-06T12:33:36;6;6;
47705;PMS5003;33471;52.104;1.318;2022-07-06T12:36:12;5;5;
47705;PMS5003;33471;52.104;1.318;2022-07-06T12:38:45;5;5;
47705;PMS5003;33471;52.104;1.318;2022-07-06T12:41:30;4;4;
47705;PMS5003;33471;52.104;1.318;2022-07-06T12:44:01;8;5;
47705;PMS5003;33471;52.104;1.318;2022-07-06T12:46:31;9;8;
47705;PMS5003;33471;52.104;1.318;2022-07-06T12:49:02;3;3;
47705;PMS5003;33471;52.104;1.318;2022-07-06T12:52:09;6;5;
47705;PMS5003;33471;52.104;1.318;2022-07-06T12:54:40;4;4;
47705;PMS5003;33471;52.104;1.318;2022-07-06T12:57:09;4;4;
47705;PMS5003;33471;52.104;1.318;2022-07-06T12:59:40;6;5;
47705;PMS5003;33471;52.104;1.318;2022-07-06T13:02:16;3;3;
47705;PMS5003;33471;52.104;1.318;2022-07-06T13:04:54;2;2;
47705;PMS5003;33471;52.104;1.318;2022-07-06T13:07:23;2;2;
47705;PMS5003;33471;52.104;1.318;2022-07-06T13:09:51;2;2;
47705;PMS5003;33471;52.104;1.318;2022-07-06T13:12:19;2;2;
47705;PMS5003;33471;52.104;1.318;2022-07-06T13:14:47;4;4;
47705;PMS5003;33471;52.104;1.318;2022-07-06T13:17:15;4;2;
47705;PMS5003;33471;52.104;1.318;2022-07-06T13:19:43;1;1;
47705;PMS5003;33471;52.104;1.318;2022-07-06T13:22:10;4;4;
47705;PMS5003;33471;52.104;1.318;2022-07-06T13:24:37;3;3;
47705;PMS5003;33471;52.104;1.318;2022-07-06T13:27:05;1;1;
47705;PMS5003;33471;52.104;1.318;2022-07-06T13:29:32;2;2;
47705;PMS5003;33471;52.104;1.318;2022-07-06T13:31:59;2;2;
47705;PMS5003;33471;52.104;1.318;2022-07-06T13:34:26;1;1;
47705;PMS5003;33471;52.104;1.318;2022-07-06T13:36:54;3;3;
47705;PMS5003;33471;52.104;1.318;2022-07-06T13:39:21;2;2;
47705;PMS5003;33471;52.104;1.318;2022-07-06T13:41:49;1;1;
47705;PMS5003;33471;52.104;1.318;2022-07-06T13:44:16;2;2;
47705;PMS5003;33471;52.104;1.318;2022-07-06T13:46:43;1;1;
47705;PMS5003;33471;52.104;1.318;2022-07-06T13:49:10;0;0;
47705;PMS5003;33471;52.104;1.318;2022-07-06T13:51:39;2;2;
47705;PMS5003;33471;52.104;1.318;2022-07-06T13:54:06;0;0;
47705;PMS5003;33471;52.104;1.318;2022-07-06T13:56:34;0;0;
47705;PMS5003;33471;52.104;1.318;2022-07-06T13:59:03;1;1;
47705;PMS5003;33471;52.104;1.318;2022-07-06T14:01:30;0;0;
47705;PMS5003;33471;52.104;1.318;2022-07-06T14:03:58;1;1;
47705;PMS5003;33471;52.104;1.318;2022-07-06T14:06:25;1;1;
47705;PMS5003;33471;52.104;1.318;2022-07-06T14:08:52;1;1;
47705;PMS5003;33471;52.104;1.318;2022-07-06T14:11:19;1;1;
47705;PMS5003;33471;52.104;1.318;2022-07-06T14:13:47;0;0;
47705;PMS5003;33471;52.104;1.318;2022-07-06T14:16:14;1;1;
47705;PMS5003;33471;52.104;1.318;2022-07-06T14:18:41;2;2;
47705;PMS5003;33471;52.104;1.318;2022-07-06T14:21:08;1;1;
47705;PMS5003;33471;52.104;1.318;2022-07-06T14:23:35;1;1;
47705;PMS5003;33471;52.104;1.318;2022-07-06T14:26:02;0;0;
47705;PMS5003;33471;52.104;1.318;2022-07-06T14:28:29;0;0;
47705;PMS5003;33471;52.104;1.318;2022-07-06T14:30:57;2;2;
47705;PMS5003;33471;52.104;1.318;2022-07-06T14:33:24;3;1;
47705;PMS5003;33471;52.104;1.318;2022-07-06T14:35:51;1;1;
47705;PMS5003;33471;52.104;1.318;2022-07-06T14:38:18;1;1;
47705;PMS5003;33471;52.104;1.318;2022-07-06T14:40:47;2;2;
47705;PMS5003;33471;52.104;1.318;2022-07-06T14:43:14;1;1;
47705;PMS5003;33471;52.104;1.318;2022-07-06T14:45:42;2;2;
47705;PMS5003;33471;52.104;1.318;2022-07-06T14:48:09;2;2;
47705;PMS5003;33471;52.104;1.318;2022-07-06T14:50:37;2;2;
47705;PMS5003;33471;52.104;1.318;2022-07-06T14:53:05;1;1;
47705;PMS5003;33471;52.104;1.318;2022-07-06T14:55:32;3;3;
47705;PMS5003;33471;52.104;1.318;2022-07-06T14:58:00;2;2;
47705;PMS5003;33471;52.104;1.318;2022-07-06T15:00:28;2;2;
47705;PMS5003;33471;52.104;1.318;2022-07-06T15:02:56;2;2;
47705;PMS5003;33471;52.104;1.318;2022-07-06T15:05:23;2;2;
47705;PMS5003;33471;52.104;1.318;2022-07-06T15:07:50;2;2;
47705;PMS5003;33471;52.104;1.318;2022-07-06T15:10:17;1;1;
47705;PMS5003;33471;52.104;1.318;2022-07-06T15:12:44;1;1;
47705;PMS5003;33471;52.104;1.318;2022-07-06T15:15:11;2;2;
47705;PMS5003;33471;52.104;1.318;2022-07-06T15:17:40;2;2;
47705;PMS5003;33471;52.104;1.318;2022-07-06T15:20:08;0;0;
47705;PMS5003;33471;52.104;1.318;2022-07-06T15:22:36;2;2;
47705;PMS5003;33471;52.104;1.318;2022-07-06T15:25:03;1;1;
47705;PMS5003;33471;52.104;1.318;2022-07-06T15:27:32;2;2;
47705;PMS5003;33471;52.104;1.318;2022-07-06T15:29:59;2;2;
47705;PMS5003;33471;52.104;1.318;2022-07-06T15:32:26;2;2;
47705;PMS5003;33471;52.104;1.318;2022-07-06T15:34:53;2;2;
47705;PMS5003;33471;52.104;1.318;2022-07-06T15:37:20;4;2;
47705;PMS5003;33471;52.104;1.318;2022-07-06T15:39:47;2;1;
47705;PMS5003;33471;52.104;1.318;2022-07-06T15:42:14;1;1;
47705;PMS5003;33471;52.104;1.318;2022-07-06T15:44:41;0;0;
47705;PMS5003;33471;52.104;1.318;2022-07-06T15:47:08;1;1;
47705;PMS5003;33471;52.104;1.318;2022-07-06T15:49:36;2;2;
47705;PMS5003;33471;52.104;1.318;2022-07-06T15:52:03;1;1;
47705;PMS5003;33471;52.104;1.318;2022-07-06T15:54:31;4;4;
47705;PMS5003;33471;52.104;1.318;2022-07-06T15:56:58;1;1;
47705;PMS5003;33471;52.104;1.318;2022-07-06T15:59:25;1;1;
47705;PMS5003;33471;52.104;1.318;2022-07-06T16:01:52;1;1;
47705;PMS5003;33471;52.104;1.318;2022-07-06T16:04:19;2;2;
47705;PMS5003;33471;52.104;1.318;2022-07-06T16:06:46;1;1;
47705;PMS5003;33471;52.104;1.318;2022-07-06T16:09:14;3;3;
47705;PMS5003;33471;52.104;1.318;2022-07-06T16:11:41;1;1;
47705;PMS5003;33471;52.104;1.318;2022-07-06T16:14:08;1;1;
47705;PMS5003;33471;52.104;1.318;2022-07-06T16:16:35;1;1;
47705;PMS5003;33471;52.104;1.318;2022-07-06T16:19:03;2;2;
47705;PMS5003;33471;52.104;1.318;2022-07-06T16:21:30;2;2;
47705;PMS5003;33471;52.104;1.318;2022-07-06T16:23:57;2;2;
47705;PMS5003;33471;52.104;1.318;2022-07-06T16:26:24;2;2;
47705;PMS5003;33471;52.104;1.318;2022-07-06T16:28:51;1;1;
47705;PMS5003;33471;52.104;1.318;2022-07-06T16:31:19;2;1;
47705;PMS5003;33471;52.104;1.318;2022-07-06T16:33:47;1;1;
47705;PMS5003;33471;52.104;1.318;2022-07-06T16:36:14;2;2;
47705;PMS5003;33471;52.104;1.318;2022-07-06T16:38:41;1;1;
47705;PMS5003;33471;52.104;1.318;2022-07-06T16:41:09;0;0;
47705;PMS5003;33471;52.104;1.318;2022-07-06T16:43:36;2;2;
47705;PMS5003;33471;52.104;1.318;2022-07-06T16:46:04;4;4;
47705;PMS5003;33471;52.104;1.318;2022-07-06T16:48:31;1;1;
47705;PMS5003;33471;52.104;1.318;2022-07-06T16:50:58;1;1;
47705;PMS5003;33471;52.104;1.318;2022-07-06T16:53:26;1;1;
47705;PMS5003;33471;52.104;1.318;2022-07-06T16:55:53;0;0;